createdAt,value
2019-03-17T14:35:28.341Z,996.09
2019-03-17T14:36:27.232Z,996.15
2019-03-17T14:37:27.226Z,996.19
2019-03-17T14:38:27.234Z,996.18
2019-03-17T14:39:27.207Z,996.14
2019-03-17T14:40:27.195Z,996.13
2019-03-17T14:41:27.185Z,996.26
2019-03-17T14:42:27.182Z,996.34
2019-03-17T14:43:27.191Z,996.22
2019-03-17T14:44:27.159Z,996.38
2019-03-17T14:45:27.151Z,996.32
2019-03-17T14:46:27.161Z,996.38
2019-03-17T14:47:27.136Z,996.29
2019-03-17T14:48:27.134Z,996.28
2019-03-17T14:49:27.112Z,996.32
2019-03-17T14:50:27.100Z,996.37
2019-03-17T14:51:27.105Z,996.38
2019-03-17T14:52:27.080Z,996.36
2019-03-17T14:53:27.073Z,996.40
2019-03-17T14:54:27.060Z,996.34
2019-03-17T14:55:27.660Z,996.39
2019-03-17T14:56:27.053Z,996.36
2019-03-17T14:57:27.028Z,996.35
2019-03-17T14:58:27.032Z,996.32
2019-03-17T14:59:27.008Z,996.37
2019-03-17T15:00:27.004Z,996.37
2019-03-17T15:01:27.088Z,996.42
2019-03-17T15:02:26.989Z,996.39
2019-03-17T15:03:26.982Z,996.46
2019-03-17T15:04:26.964Z,996.47
2019-03-17T15:05:26.960Z,996.42
2019-03-17T15:06:26.949Z,996.45
2019-03-17T15:07:26.947Z,996.43
2019-03-17T15:08:26.932Z,996.43
2019-03-17T15:09:26.918Z,996.45
2019-03-17T15:10:26.926Z,996.42
2019-03-17T15:11:27.574Z,996.46
2019-03-17T15:12:26.898Z,996.52
2019-03-17T15:13:26.884Z,996.54
2019-03-17T15:14:26.873Z,996.56
2019-03-17T15:15:26.863Z,996.54
2019-03-17T15:16:26.850Z,996.59
2019-03-17T15:17:26.846Z,996.58
2019-03-17T15:18:26.912Z,996.63
2019-03-17T15:19:26.828Z,996.65
2019-03-17T15:20:26.831Z,996.62
2019-03-17T15:21:26.808Z,996.59
2019-03-17T15:22:26.796Z,996.61
2019-03-17T15:23:26.790Z,996.64
2019-03-17T15:24:27.673Z,996.64
2019-03-17T15:25:26.769Z,996.68
2019-03-17T15:26:26.755Z,996.68
2019-03-17T15:27:26.742Z,996.65
2019-03-17T15:28:26.739Z,996.70
2019-03-17T15:29:26.732Z,996.70
2019-03-17T15:30:26.720Z,996.69
2019-03-17T15:31:26.713Z,996.72
2019-03-17T15:32:26.705Z,996.74
2019-03-17T15:33:26.688Z,996.72
2019-03-17T15:34:26.683Z,996.67
2019-03-17T15:35:26.687Z,996.77
2019-03-17T15:36:26.664Z,996.68
2019-03-17T15:37:26.652Z,996.72
2019-03-17T15:38:26.642Z,996.70
2019-03-17T15:39:26.633Z,996.73
2019-03-17T15:40:26.629Z,996.74
2019-03-17T15:41:26.610Z,996.72
2019-03-17T15:42:26.605Z,996.81
2019-03-17T15:43:28.238Z,996.79
2019-03-17T15:44:26.583Z,996.82
2019-03-17T15:45:26.572Z,996.80
2019-03-17T15:46:26.575Z,996.82
2019-03-17T15:47:26.557Z,996.83
2019-03-17T15:48:26.551Z,996.85
2019-03-17T15:49:26.540Z,996.88
2019-03-17T15:50:26.534Z,996.90
2019-03-17T15:51:26.528Z,996.88
2019-03-17T15:52:26.513Z,996.96
2019-03-17T15:53:26.505Z,996.92
2019-03-17T15:54:26.496Z,996.98
2019-03-17T15:55:26.479Z,997.07
2019-03-17T15:56:26.468Z,997.08
2019-03-17T15:57:26.491Z,997.10
2019-03-17T15:58:26.455Z,997.14
2019-03-17T15:59:26.441Z,997.13
2019-03-17T16:00:27.118Z,997.03
2019-03-17T16:01:26.432Z,997.07
2019-03-17T16:02:26.415Z,997.09
2019-03-17T16:03:26.404Z,997.15
2019-03-17T16:04:26.394Z,996.99
2019-03-17T16:05:26.443Z,997.05
2019-03-17T16:06:26.376Z,997.16
2019-03-17T16:07:26.388Z,997.24
2019-03-17T16:08:26.359Z,997.18
2019-03-17T16:09:28.642Z,997.14
2019-03-17T16:10:26.333Z,997.25
2019-03-17T16:11:30.805Z,997.19
2019-03-17T16:12:26.338Z,997.25
2019-03-17T16:13:26.303Z,997.23
2019-03-17T16:14:26.414Z,997.26
2019-03-17T16:15:26.290Z,997.26
2019-03-17T16:16:26.292Z,997.28
2019-03-17T16:17:26.265Z,997.31
2019-03-17T16:18:26.262Z,997.26
2019-03-17T16:19:26.243Z,997.29
2019-03-17T16:20:26.280Z,997.28
2019-03-17T16:21:26.226Z,997.31
2019-03-17T16:22:26.214Z,997.31
2019-03-17T16:23:26.201Z,997.39
2019-03-17T16:24:26.192Z,997.36
2019-03-17T16:25:26.184Z,997.37
2019-03-17T16:26:26.174Z,997.36
2019-03-17T16:27:26.241Z,997.34
2019-03-17T16:28:26.153Z,997.31
2019-03-17T16:29:26.131Z,997.34
2019-03-17T16:30:26.121Z,997.39
2019-03-17T16:31:26.113Z,997.37
2019-03-17T16:32:26.105Z,997.35
2019-03-17T16:33:26.104Z,997.35
2019-03-17T16:34:26.086Z,997.38
2019-03-17T16:35:26.073Z,997.39
2019-03-17T16:36:26.057Z,997.43
2019-03-17T16:37:26.067Z,997.47
2019-03-17T16:38:26.048Z,997.42
2019-03-17T16:39:26.055Z,997.54
2019-03-17T16:40:26.023Z,997.55
2019-03-17T16:41:26.006Z,997.59
2019-03-17T16:42:26.028Z,997.60
2019-03-17T16:43:25.985Z,997.58
2019-03-17T16:44:26.213Z,997.58
2019-03-17T16:45:25.970Z,997.60
2019-03-17T16:46:25.961Z,997.61
2019-03-17T16:47:25.939Z,997.59
2019-03-17T16:48:25.953Z,997.65
2019-03-17T16:49:25.928Z,997.68
2019-03-17T16:50:25.925Z,997.69
2019-03-17T16:51:25.909Z,997.70
2019-03-17T16:52:25.901Z,997.69
2019-03-17T16:53:25.875Z,997.70
2019-03-17T16:54:25.876Z,997.67
2019-03-17T16:55:25.857Z,997.76
2019-03-17T16:56:25.842Z,997.78
2019-03-17T16:57:25.830Z,997.83
2019-03-17T16:58:25.820Z,997.86
2019-03-17T16:59:25.823Z,997.86
2019-03-17T17:00:25.818Z,997.89
2019-03-17T17:01:25.789Z,997.91
2019-03-17T17:02:25.774Z,997.95
2019-03-17T17:03:25.768Z,997.93
2019-03-17T17:04:25.760Z,997.90
2019-03-17T17:05:26.181Z,997.95
2019-03-17T17:06:25.733Z,997.94
2019-03-17T17:07:25.741Z,998.00
2019-03-17T17:08:25.725Z,997.98
2019-03-17T17:09:25.709Z,997.96
2019-03-17T17:10:25.701Z,997.89
2019-03-17T17:11:25.696Z,997.91
2019-03-17T17:12:25.671Z,997.94
2019-03-17T17:13:25.664Z,997.94
2019-03-17T17:14:25.647Z,997.96
2019-03-17T17:15:25.641Z,997.96
2019-03-17T17:16:25.633Z,997.94
2019-03-17T17:17:25.623Z,997.97
2019-03-17T17:18:25.607Z,997.95
2019-03-17T17:19:25.637Z,997.96
2019-03-17T17:20:25.593Z,997.94
2019-03-17T17:21:25.576Z,997.97
2019-03-17T17:22:25.574Z,997.98
2019-03-17T17:23:25.566Z,997.99
2019-03-17T17:24:25.599Z,997.98
2019-03-17T17:25:25.528Z,998.00
2019-03-17T17:26:36.643Z,998.03
2019-03-17T17:27:25.510Z,998.04
2019-03-17T17:28:25.515Z,998.11
2019-03-17T17:29:25.486Z,998.13
2019-03-17T17:30:25.471Z,998.11
2019-03-17T17:31:25.459Z,998.14
2019-03-17T17:32:25.458Z,998.16
2019-03-17T17:33:27.847Z,998.21
2019-03-17T17:34:25.481Z,998.21
2019-03-17T17:35:25.417Z,998.22
2019-03-17T17:36:25.409Z,998.26
2019-03-17T17:37:25.404Z,998.21
2019-03-17T17:38:25.388Z,998.22
2019-03-17T17:39:26.220Z,998.23
2019-03-17T17:40:25.368Z,998.22
2019-03-17T17:41:25.354Z,998.26
2019-03-17T17:42:25.373Z,998.29
2019-03-17T17:43:25.334Z,998.24
2019-03-17T17:44:25.322Z,998.29
2019-03-17T17:45:25.306Z,998.31
2019-03-17T17:46:25.300Z,998.33
2019-03-17T17:47:25.285Z,998.35
2019-03-17T17:48:25.286Z,998.40
2019-03-17T17:49:25.268Z,998.41
2019-03-17T17:50:25.257Z,998.45
2019-03-17T17:51:25.243Z,998.48
2019-03-17T17:52:27.971Z,998.50
2019-03-17T17:53:25.229Z,998.53
2019-03-17T17:54:25.225Z,998.58
2019-03-17T17:55:25.201Z,998.59
2019-03-17T17:56:25.188Z,998.61
2019-03-17T17:57:25.187Z,998.65
2019-03-17T17:58:25.175Z,998.67
2019-03-17T17:59:25.175Z,998.72
2019-03-17T18:00:25.145Z,998.69
2019-03-17T18:01:25.133Z,998.70
2019-03-17T18:02:25.135Z,998.70
2019-03-17T18:03:25.108Z,998.76
2019-03-17T18:04:25.101Z,998.75
2019-03-17T18:05:25.088Z,998.78
2019-03-17T18:06:25.088Z,998.81
2019-03-17T18:07:25.067Z,998.82
2019-03-17T18:08:25.059Z,998.76
2019-03-17T18:09:25.044Z,998.76
2019-03-17T18:10:25.035Z,998.80
2019-03-17T18:11:25.031Z,998.85
2019-03-17T18:12:25.016Z,998.85
2019-03-17T18:13:24.997Z,998.86
2019-03-17T18:14:24.995Z,998.91
2019-03-17T18:15:24.982Z,998.91
2019-03-17T18:16:24.966Z,998.93
2019-03-17T18:17:24.963Z,998.95
2019-03-17T18:18:24.947Z,999.00
2019-03-17T18:19:24.933Z,998.98
2019-03-17T18:20:24.926Z,998.99
2019-03-17T18:21:24.916Z,998.98
2019-03-17T18:22:24.902Z,998.92
2019-03-17T18:23:24.906Z,998.95
2019-03-17T18:24:24.879Z,998.96
2019-03-17T18:25:24.881Z,998.98
2019-03-17T18:26:24.880Z,998.99
2019-03-17T18:27:24.861Z,999.03
2019-03-17T18:28:24.886Z,999.03
2019-03-17T18:29:24.842Z,999.01
2019-03-17T18:30:25.728Z,999.08
2019-03-17T18:31:24.855Z,999.05
2019-03-17T18:32:24.841Z,999.06
2019-03-17T18:33:24.779Z,999.02
2019-03-17T18:34:24.815Z,999.06
2019-03-17T18:35:25.767Z,999.09
2019-03-17T18:36:25.743Z,999.06
2019-03-17T18:37:24.799Z,999.07
2019-03-17T18:38:24.743Z,999.11
2019-03-17T18:39:24.713Z,999.14
2019-03-17T18:40:24.698Z,999.13
2019-03-17T18:41:25.237Z,999.15
2019-03-17T18:42:33.053Z,999.20
2019-03-17T18:43:24.720Z,999.25
2019-03-17T18:44:24.658Z,999.19
2019-03-17T18:45:24.644Z,999.29
2019-03-17T18:46:24.734Z,999.32
2019-03-17T18:47:24.619Z,999.31
2019-03-17T18:48:24.614Z,999.29
2019-03-17T18:49:24.601Z,999.35
2019-03-17T18:50:24.596Z,999.31
2019-03-17T18:51:25.282Z,999.35
2019-03-17T18:52:24.563Z,999.33
2019-03-17T18:53:24.554Z,999.40
2019-03-17T18:54:24.551Z,999.43
2019-03-17T18:55:24.532Z,999.38
2019-03-17T18:56:24.524Z,999.45
2019-03-17T18:57:25.242Z,999.44
2019-03-17T18:58:24.518Z,999.50
2019-03-17T18:59:24.490Z,999.53
2019-03-17T19:00:24.484Z,999.50
2019-03-17T19:01:24.481Z,999.52
2019-03-17T19:02:35.386Z,999.49
2019-03-17T19:03:24.447Z,999.54
2019-03-17T19:04:24.437Z,999.57
2019-03-17T19:05:24.424Z,999.58
2019-03-17T19:06:24.412Z,999.53
2019-03-17T19:07:24.394Z,999.59
2019-03-17T19:08:24.405Z,999.60
2019-03-17T19:09:24.375Z,999.56
2019-03-17T19:10:24.361Z,999.58
2019-03-17T19:11:24.345Z,999.62
2019-03-17T19:12:24.344Z,999.62
2019-03-17T19:13:24.327Z,999.62
2019-03-17T19:14:24.323Z,999.64
2019-03-17T19:15:24.306Z,999.65
2019-03-17T19:16:24.295Z,999.69
2019-03-17T19:17:24.289Z,999.67
2019-03-17T19:18:24.269Z,999.72
2019-03-17T19:19:24.254Z,999.72
2019-03-17T19:20:24.254Z,999.77
2019-03-17T19:21:24.236Z,999.83
2019-03-17T19:22:24.220Z,999.85
2019-03-17T19:23:24.221Z,999.86
2019-03-17T19:24:24.197Z,999.89
2019-03-17T19:25:24.186Z,999.85
2019-03-17T19:26:24.173Z,999.89
2019-03-17T19:27:24.166Z,999.86
2019-03-17T19:28:24.153Z,999.88
2019-03-17T19:29:24.146Z,999.90
2019-03-17T19:30:24.139Z,999.85
2019-03-17T19:31:24.118Z,999.91
2019-03-17T19:32:24.112Z,999.91
2019-03-17T19:33:24.102Z,999.92
2019-03-17T19:34:24.124Z,999.94
2019-03-17T19:35:24.083Z,999.92
2019-03-17T19:36:24.058Z,1000.01
2019-03-17T19:37:24.048Z,1000.01
2019-03-17T19:38:24.031Z,999.97
2019-03-17T19:39:24.024Z,999.98
2019-03-17T19:40:24.030Z,999.97
2019-03-17T19:41:24.003Z,1000.00
2019-03-17T19:42:23.983Z,999.99
2019-03-17T19:43:23.970Z,1000.01
2019-03-17T19:44:23.967Z,1000.05
2019-03-17T19:45:23.965Z,1000.00
2019-03-17T19:46:23.944Z,1000.05
2019-03-17T19:47:23.928Z,1000.04
2019-03-17T19:48:24.777Z,1000.04
2019-03-17T19:49:23.918Z,1000.09
2019-03-17T19:50:23.900Z,1000.12
2019-03-17T19:51:23.893Z,1000.17
2019-03-17T19:52:24.807Z,1000.21
2019-03-17T19:53:23.859Z,1000.17
2019-03-17T19:54:23.857Z,1000.20
2019-03-17T19:55:23.840Z,1000.19
2019-03-17T19:56:23.826Z,1000.16
2019-03-17T19:57:23.815Z,1000.19
2019-03-17T19:58:23.803Z,1000.21
2019-03-17T19:59:23.797Z,1000.22
2019-03-17T20:00:26.756Z,1000.19
2019-03-17T20:01:23.782Z,1000.23
2019-03-17T20:02:23.755Z,1000.19
2019-03-17T20:03:23.744Z,1000.30
2019-03-17T20:04:30.433Z,1000.27
2019-03-17T20:05:23.724Z,1000.26
2019-03-17T20:06:23.713Z,1000.28
2019-03-17T20:07:23.702Z,1000.32
2019-03-17T20:08:23.709Z,1000.32
2019-03-17T20:09:23.676Z,1000.38
2019-03-17T20:10:23.663Z,1000.34
2019-03-17T20:11:25.687Z,1000.30
2019-03-17T20:12:23.653Z,1000.37
2019-03-17T20:13:23.655Z,1000.39
2019-03-17T20:14:23.636Z,1000.37
2019-03-17T20:15:23.605Z,1000.36
2019-03-17T20:16:23.591Z,1000.40
2019-03-17T20:17:23.587Z,1000.34
2019-03-17T20:18:23.572Z,1000.33
2019-03-17T20:19:23.577Z,1000.35
2019-03-17T20:20:23.543Z,1000.42
2019-03-17T20:21:23.529Z,1000.39
2019-03-17T20:22:23.536Z,1000.40
2019-03-17T20:23:24.273Z,1000.37
2019-03-17T20:24:23.518Z,1000.36
2019-03-17T20:25:23.488Z,1000.32
2019-03-17T20:26:23.469Z,1000.44
2019-03-17T20:27:23.478Z,1000.46
2019-03-17T20:28:23.458Z,1000.44
2019-03-17T20:29:23.433Z,1000.42
2019-03-17T20:30:23.443Z,1000.51
2019-03-17T20:31:23.426Z,1000.54
2019-03-17T20:32:23.402Z,1000.58
2019-03-17T20:33:23.391Z,1000.54
2019-03-17T20:34:23.392Z,1000.55
2019-03-17T20:35:23.420Z,1000.60
2019-03-17T20:36:23.362Z,1000.61
2019-03-17T20:37:23.347Z,1000.61
2019-03-17T20:38:23.333Z,1000.56
2019-03-17T20:39:23.324Z,1000.60
2019-03-17T20:40:23.310Z,1000.67
2019-03-17T20:41:23.290Z,1000.69
2019-03-17T20:42:23.282Z,1000.65
2019-03-17T20:43:34.289Z,1000.70
2019-03-17T20:44:23.257Z,1000.69
2019-03-17T20:45:23.251Z,1000.76
2019-03-17T20:46:23.405Z,1000.74
2019-03-17T20:47:23.226Z,1000.77
2019-03-17T20:48:23.343Z,1000.87
2019-03-17T20:49:23.861Z,1000.84
2019-03-17T20:50:23.202Z,1000.82
2019-03-17T20:51:23.181Z,1000.85
2019-03-17T20:52:23.174Z,1000.80
2019-03-17T20:53:23.146Z,1000.85
2019-03-17T20:54:23.151Z,1000.88
2019-03-17T20:55:23.140Z,1000.90
2019-03-17T20:56:23.122Z,1000.83
2019-03-17T20:57:23.106Z,1000.95
2019-03-17T20:58:23.095Z,1000.90
2019-03-17T20:59:23.084Z,1000.99
2019-03-17T21:00:23.067Z,1000.99
2019-03-17T21:01:23.065Z,1001.08
2019-03-17T21:02:23.051Z,1001.12
2019-03-17T21:03:23.041Z,1001.12
2019-03-17T21:04:23.036Z,1001.16
2019-03-17T21:05:23.012Z,1001.11
2019-03-17T21:06:23.002Z,1001.14
2019-03-17T21:07:22.985Z,1000.97
2019-03-17T21:08:22.979Z,1001.07
2019-03-17T21:09:22.958Z,1001.07
2019-03-17T21:10:22.982Z,1001.07
2019-03-17T21:11:22.945Z,1001.18
2019-03-17T21:12:22.925Z,1001.13
2019-03-17T21:13:22.914Z,1001.20
2019-03-17T21:14:22.901Z,1001.22
2019-03-17T21:15:22.894Z,1001.24
2019-03-17T21:16:22.879Z,1001.23
2019-03-17T21:17:22.863Z,1001.25
2019-03-17T21:18:22.859Z,1001.21
2019-03-17T21:19:22.842Z,1001.32
2019-03-17T21:20:22.839Z,1001.35
2019-03-17T21:21:22.822Z,1001.44
2019-03-17T21:22:22.808Z,1001.39
2019-03-17T21:23:22.787Z,1001.42
2019-03-17T21:24:22.781Z,1001.40
2019-03-17T21:25:22.764Z,1001.40
2019-03-17T21:26:22.757Z,1001.40
2019-03-17T21:27:22.745Z,1001.36
2019-03-17T21:28:22.737Z,1001.36
2019-03-17T21:29:22.729Z,1001.40
2019-03-17T21:30:22.782Z,1001.35
2019-03-17T21:31:22.692Z,1001.39
2019-03-17T21:32:22.682Z,1001.39
2019-03-17T21:33:22.669Z,1001.42
2019-03-17T21:34:22.659Z,1001.42
2019-03-17T21:35:22.645Z,1001.48
2019-03-17T21:36:22.640Z,1001.47
2019-03-17T21:37:22.618Z,1001.48
2019-03-17T21:38:22.619Z,1001.46
2019-03-17T21:39:22.613Z,1001.52
2019-03-17T21:40:22.592Z,1001.48
2019-03-17T21:41:22.572Z,1001.53
2019-03-17T21:42:22.558Z,1001.57
2019-03-17T21:43:22.553Z,1001.47
2019-03-17T21:44:22.537Z,1001.46
2019-03-17T21:45:22.529Z,1001.48
2019-03-17T21:46:22.520Z,1001.46
2019-03-17T21:47:22.503Z,1001.43
2019-03-17T21:48:22.490Z,1001.46
2019-03-17T21:49:22.481Z,1001.51
2019-03-17T21:50:22.461Z,1001.51
2019-03-17T21:51:22.461Z,1001.46
2019-03-17T21:52:22.439Z,1001.52
2019-03-17T21:53:22.426Z,1001.52
2019-03-17T21:54:22.414Z,1001.58
2019-03-17T21:55:22.401Z,1001.55
2019-03-17T21:56:22.408Z,1001.60
2019-03-17T21:57:22.395Z,1001.59
2019-03-17T21:58:22.369Z,1001.58
2019-03-17T21:59:22.348Z,1001.61
2019-03-17T22:00:22.345Z,1001.71
2019-03-17T22:01:22.327Z,1001.72
2019-03-17T22:02:22.316Z,1001.75
2019-03-17T22:03:22.307Z,1001.75
2019-03-17T22:04:22.293Z,1001.80
2019-03-17T22:05:22.279Z,1001.87
2019-03-17T22:06:22.261Z,1001.88
2019-03-17T22:07:22.261Z,1001.87
2019-03-17T22:08:22.245Z,1001.88
2019-03-17T22:09:22.240Z,1001.78
2019-03-17T22:10:22.222Z,1001.83
2019-03-17T22:11:22.208Z,1001.86
2019-03-17T22:12:22.191Z,1001.82
2019-03-17T22:13:22.189Z,1001.77
2019-03-17T22:14:22.170Z,1001.73
2019-03-17T22:15:22.162Z,1001.74
2019-03-17T22:16:22.150Z,1001.67
2019-03-17T22:17:22.136Z,1001.68
2019-03-17T22:18:22.129Z,1001.67
2019-03-17T22:19:22.111Z,1001.63
2019-03-17T22:20:22.096Z,1001.71
2019-03-17T22:21:22.083Z,1001.74
2019-03-17T22:22:22.069Z,1001.68
2019-03-17T22:23:22.066Z,1001.76
2019-03-17T22:24:22.042Z,1001.72
2019-03-17T22:25:22.053Z,1001.74
2019-03-17T22:26:22.023Z,1001.70
2019-03-17T22:27:22.011Z,1001.64
2019-03-17T22:28:21.998Z,1001.77
2019-03-17T22:29:22.000Z,1001.84
2019-03-17T22:30:21.976Z,1001.86
2019-03-17T22:31:21.956Z,1001.86
2019-03-17T22:32:21.945Z,1001.83
2019-03-17T22:33:21.936Z,1001.83
2019-03-17T22:34:21.932Z,1001.84
2019-03-17T22:35:21.911Z,1001.95
2019-03-17T22:36:21.899Z,1001.84
2019-03-17T22:37:21.896Z,1001.86
2019-03-17T22:38:21.872Z,1001.95
2019-03-17T22:39:21.872Z,1001.94
2019-03-17T22:40:21.849Z,1001.95
2019-03-17T22:41:21.835Z,1001.97
2019-03-17T22:42:21.828Z,1001.98
2019-03-17T22:43:21.819Z,1001.96
2019-03-17T22:44:24.599Z,1001.90
2019-03-17T22:45:21.804Z,1001.98
2019-03-17T22:46:21.776Z,1001.92
2019-03-17T22:47:21.764Z,1002.02
2019-03-17T22:48:21.754Z,1002.01
2019-03-17T22:49:21.745Z,1001.95
2019-03-17T22:50:21.748Z,1001.99
2019-03-17T22:51:21.710Z,1002.00
2019-03-17T22:52:21.702Z,1001.98
2019-03-17T22:53:21.689Z,1002.02
2019-03-17T22:54:21.684Z,1002.04
2019-03-17T22:55:21.661Z,1001.97
2019-03-17T22:56:21.665Z,1001.98
2019-03-17T22:57:21.636Z,1002.05
2019-03-17T22:58:21.624Z,1002.00
2019-03-17T22:59:21.613Z,1002.01
2019-03-17T23:00:21.597Z,1002.01
2019-03-17T23:01:21.600Z,1002.04
2019-03-17T23:02:21.579Z,1001.97
2019-03-17T23:03:21.573Z,1001.98
2019-03-17T23:04:22.210Z,1001.93
2019-03-17T23:05:21.634Z,1001.94
2019-03-17T23:06:21.533Z,1002.02
2019-03-17T23:07:21.512Z,1002.06
2019-03-17T23:08:21.501Z,1002.09
2019-03-17T23:09:21.487Z,1002.11
2019-03-17T23:10:21.491Z,1002.04
2019-03-17T23:11:21.481Z,1002.12
2019-03-17T23:12:21.462Z,1002.11
2019-03-17T23:13:21.442Z,1002.08
2019-03-17T23:14:21.422Z,1002.12
2019-03-17T23:15:21.422Z,1002.05
2019-03-17T23:16:24.684Z,1002.03
2019-03-17T23:17:21.391Z,1002.07
2019-03-17T23:18:21.376Z,1002.07
2019-03-17T23:19:21.371Z,1002.09
2019-03-17T23:20:21.378Z,1002.07
2019-03-17T23:21:21.345Z,1002.00
2019-03-17T23:22:21.334Z,1002.05
2019-03-17T23:23:21.312Z,1001.99
2019-03-17T23:24:21.307Z,1002.08
2019-03-17T23:25:21.294Z,1002.07
2019-03-17T23:26:21.280Z,1002.05
2019-03-17T23:27:21.279Z,1002.01
2019-03-17T23:28:21.268Z,1002.00
2019-03-17T23:29:21.245Z,1001.98
2019-03-17T23:30:21.227Z,1002.03
2019-03-17T23:31:21.803Z,1002.01
2019-03-17T23:32:21.809Z,1002.04
2019-03-17T23:33:21.193Z,1001.99
2019-03-17T23:34:21.175Z,1002.01
2019-03-17T23:35:21.163Z,1002.03
2019-03-17T23:36:21.164Z,1001.98
2019-03-17T23:37:21.140Z,1002.04
2019-03-17T23:38:21.130Z,1002.05
2019-03-17T23:39:21.121Z,1002.06
2019-03-17T23:40:21.107Z,1002.11
2019-03-17T23:41:21.106Z,1002.08
2019-03-17T23:42:21.082Z,1002.13
2019-03-17T23:43:21.067Z,1002.13
2019-03-17T23:44:21.050Z,1002.15
2019-03-17T23:45:21.050Z,1002.16
2019-03-17T23:46:21.031Z,1002.19
2019-03-17T23:47:21.016Z,1002.17
2019-03-17T23:48:21.006Z,1002.14
2019-03-17T23:49:20.998Z,1002.10
2019-03-17T23:50:20.980Z,1002.17
2019-03-17T23:51:20.978Z,1002.12
2019-03-17T23:52:20.948Z,1002.12
2019-03-17T23:53:20.942Z,1002.10
2019-03-17T23:54:20.931Z,1002.13
2019-03-17T23:55:20.911Z,1002.06
2019-03-17T23:56:20.908Z,1002.10
2019-03-17T23:57:21.899Z,1002.10
2019-03-17T23:58:20.878Z,1002.15
2019-03-17T23:59:20.878Z,1002.16
